sensor_id;sensor_type;location;lat;lon;timestamp;noise_LAeq;noise_LA_min;noise_LA_max;noise_LA01;noise_LA95
64393;Laerm;50712;49.506;10.400;2023-02-13T00:00:20;32.59;29.79;39.80;;
64393;Laerm;50712;49.506;10.400;2023-02-13T00:00:50;31.85;29.97;34.12;;
64393;Laerm;50712;49.506;10.400;2023-02-13T00:01:21;31.84;29.88;34.31;;
64393;Laerm;50712;49.506;10.400;2023-02-13T00:01:52;32.01;29.88;36.36;;
64393;Laerm;50712;49.506;10.400;2023-02-13T00:02:22;31.50;29.14;33.60;;
64393;Laerm;50712;49.506;10.400;2023-02-13T00:02:53;31.18;29.43;33.30;;
64393;Laerm;50712;49.506;10.400;2023-02-13T00:03:23;31.73;29.68;34.73;;
64393;Laerm;50712;49.506;10.400;2023-02-13T00:03:53;31.73;29.69;33.95;;
64393;Laerm;50712;49.506;10.400;2023-02-13T00:04:24;31.42;29.19;33.52;;
64393;Laerm;50712;49.506;10.400;2023-02-13T00:04:54;31.07;29.18;33.56;;
64393;Laerm;50712;49.506;10.400;2023-02-13T00:05:24;31.45;29.55;33.86;;
64393;Laerm;50712;49.506;10.400;2023-02-13T00:05:55;31.54;29.67;35.52;;
64393;Laerm;50712;49.506;10.400;2023-02-13T00:06:25;32.07;29.36;35.05;;
64393;Laerm;50712;49.506;10.400;2023-02-13T00:06:55;32.07;29.61;34.56;;
64393;Laerm;50712;49.506;10.400;2023-02-13T00:07:26;32.28;30.08;34.44;;
64393;Laerm;50712;49.506;10.400;2023-02-13T00:07:56;32.31;30.15;34.29;;
64393;Laerm;50712;49.506;10.400;2023-02-13T00:08:26;32.43;29.57;34.93;;
64393;Laerm;50712;49.506;10.400;2023-02-13T00:08:57;32.89;30.63;35.62;;
64393;Laerm;50712;49.506;10.400;2023-02-13T00:09:27;33.00;30.43;36.06;;
64393;Laerm;50712;49.506;10.400;2023-02-13T00:09:57;32.73;30.57;34.93;;
64393;Laerm;50712;49.506;10.400;2023-02-13T00:10:28;32.62;30.62;34.80;;
64393;Laerm;50712;49.506;10.400;2023-02-13T00:10:59;32.53;30.25;34.96;;
64393;Laerm;50712;49.506;10.400;2023-02-13T00:11:29;32.80;30.71;34.93;;
64393;Laerm;50712;49.506;10.400;2023-02-13T00:11:59;32.28;30.28;35.01;;
64393;Laerm;50712;49.506;10.400;2023-02-13T00:12:30;32.07;29.92;33.97;;
64393;Laerm;50712;49.506;10.400;2023-02-13T00:13:00;31.81;29.91;33.98;;
64393;Laerm;50712;49.506;10.400;2023-02-13T00:13:32;31.55;29.33;34.24;;
64393;Laerm;50712;49.506;10.400;2023-02-13T00:14:03;31.92;29.69;34.59;;
64393;Laerm;50712;49.506;10.400;2023-02-13T00:14:35;31.57;29.39;34.08;;
64393;Laerm;50712;49.506;10.400;2023-02-13T00:15:06;31.23;29.38;37.52;;
64393;Laerm;50712;49.506;10.400;2023-02-13T00:15:36;33.54;30.11;38.40;;
64393;Laerm;50712;49.506;10.400;2023-02-13T00:16:06;37.78;30.97;46.03;;
64393;Laerm;50712;49.506;10.400;2023-02-13T00:16:37;35.59;30.00;43.37;;
64393;Laerm;50712;49.506;10.400;2023-02-13T00:17:07;32.86;29.60;36.45;;
64393;Laerm;50712;49.506;10.400;2023-02-13T00:17:37;32.23;30.17;34.37;;
64393;Laerm;50712;49.506;10.400;2023-02-13T00:18:08;36.06;30.08;52.71;;
64393;Laerm;50712;49.506;10.400;2023-02-13T00:18:38;35.20;29.83;50.10;;
64393;Laerm;50712;49.506;10.400;2023-02-13T00:19:08;34.81;29.82;45.23;;
64393;Laerm;50712;49.506;10.400;2023-02-13T00:19:39;33.49;29.25;49.16;;
64393;Laerm;50712;49.506;10.400;2023-02-13T00:20:40;36.22;30.01;45.25;;
64393;Laerm;50712;49.506;10.400;2023-02-13T00:21:11;37.45;30.12;51.34;;
64393;Laerm;50712;49.506;10.400;2023-02-13T00:21:42;35.77;30.15;48.86;;
64393;Laerm;50712;49.506;10.400;2023-02-13T00:22:12;33.01;29.96;42.83;;
64393;Laerm;50712;49.506;10.400;2023-02-13T00:22:45;32.88;30.47;41.41;;
64393;Laerm;50712;49.506;10.400;2023-02-13T00:23:15;32.02;29.56;37.21;;
64393;Laerm;50712;49.506;10.400;2023-02-13T00:23:46;31.04;29.02;32.73;;
64393;Laerm;50712;49.506;10.400;2023-02-13T00:24:16;31.14;29.33;36.06;;
64393;Laerm;50712;49.506;10.400;2023-02-13T00:24:47;31.28;29.59;33.10;;
64393;Laerm;50712;49.506;10.400;2023-02-13T00:25:47;30.63;28.94;32.58;;
64393;Laerm;50712;49.506;10.400;2023-02-13T00:26:18;30.73;28.96;32.93;;
64393;Laerm;50712;49.506;10.400;2023-02-13T00:26:48;31.59;29.68;34.93;;
64393;Laerm;50712;49.506;10.400;2023-02-13T00:27:18;31.54;29.50;33.29;;
64393;Laerm;50712;49.506;10.400;2023-02-13T00:27:52;31.04;29.51;33.97;;
64393;Laerm;50712;49.506;10.400;2023-02-13T00:28:24;30.98;29.04;32.64;;
64393;Laerm;50712;49.506;10.400;2023-02-13T00:28:55;31.60;29.08;45.39;;
64393;Laerm;50712;49.506;10.400;2023-02-13T00:29:28;32.31;29.90;36.12;;
64393;Laerm;50712;49.506;10.400;2023-02-13T00:29:58;31.90;29.85;34.89;;
64393;Laerm;50712;49.506;10.400;2023-02-13T00:30:28;31.64;29.74;34.05;;
64393;Laerm;50712;49.506;10.400;2023-02-13T00:31:06;32.19;29.80;35.19;;
64393;Laerm;50712;49.506;10.400;2023-02-13T00:31:37;33.14;30.51;44.52;;
64393;Laerm;50712;49.506;10.400;2023-02-13T00:32:08;32.66;30.16;34.98;;
64393;Laerm;50712;49.506;10.400;2023-02-13T00:32:38;31.60;29.58;34.09;;
64393;Laerm;50712;49.506;10.400;2023-02-13T00:33:08;31.69;29.98;35.28;;
64393;Laerm;50712;49.506;10.400;2023-02-13T00:33:39;32.12;29.59;35.42;;
64393;Laerm;50712;49.506;10.400;2023-02-13T00:34:09;32.31;29.59;35.39;;
64393;Laerm;50712;49.506;10.400;2023-02-13T00:34:39;32.01;30.20;34.58;;
64393;Laerm;50712;49.506;10.400;2023-02-13T00:35:10;32.33;29.79;46.56;;
64393;Laerm;50712;49.506;10.400;2023-02-13T00:35:40;31.90;30.01;34.87;;
64393;Laerm;50712;49.506;10.400;2023-02-13T00:36:13;31.20;28.79;33.56;;
64393;Laerm;50712;49.506;10.400;2023-02-13T00:36:44;31.75;29.69;34.28;;
64393;Laerm;50712;49.506;10.400;2023-02-13T00:37:14;32.53;30.01;35.22;;
64393;Laerm;50712;49.506;10.400;2023-02-13T00:37:44;31.86;29.67;35.16;;
64393;Laerm;50712;49.506;10.400;2023-02-13T00:38:15;31.11;29.36;33.93;;
64393;Laerm;50712;49.506;10.400;2023-02-13T00:38:46;30.93;28.77;33.48;;
64393;Laerm;50712;49.506;10.400;2023-02-13T00:39:16;31.11;29.11;34.04;;
64393;Laerm;50712;49.506;10.400;2023-02-13T00:39:46;30.77;28.90;33.04;;
64393;Laerm;50712;49.506;10.400;2023-02-13T00:40:17;30.80;29.21;33.24;;
64393;Laerm;50712;49.506;10.400;2023-02-13T00:40:47;31.18;29.14;33.40;;
64393;Laerm;50712;49.506;10.400;2023-02-13T00:41:18;31.31;28.87;35.79;;
64393;Laerm;50712;49.506;10.400;2023-02-13T00:41:48;31.17;29.44;34.94;;
64393;Laerm;50712;49.506;10.400;2023-02-13T00:42:19;30.86;28.95;33.49;;
64393;Laerm;50712;49.506;10.400;2023-02-13T00:42:53;30.62;28.80;32.98;;
64393;Laerm;50712;49.506;10.400;2023-02-13T00:43:23;30.78;29.18;32.90;;
64393;Laerm;50712;49.506;10.400;2023-02-13T00:43:54;31.07;29.09;33.04;;
64393;Laerm;50712;49.506;10.400;2023-02-13T00:44:24;32.25;29.36;36.41;;
64393;Laerm;50712;49.506;10.400;2023-02-13T00:44:54;30.91;28.71;32.85;;
64393;Laerm;50712;49.506;10.400;2023-02-13T00:45:27;31.29;29.06;35.97;;
64393;Laerm;50712;49.506;10.400;2023-02-13T00:45:58;31.15;28.99;33.49;;
64393;Laerm;50712;49.506;10.400;2023-02-13T00:46:29;31.12;28.99;34.01;;
64393;Laerm;50712;49.506;10.400;2023-02-13T00:46:59;30.87;29.04;32.83;;
64393;Laerm;50712;49.506;10.400;2023-02-13T00:47:29;30.81;29.03;32.74;;
64393;Laerm;50712;49.506;10.400;2023-02-13T00:48:00;31.01;28.97;33.46;;
64393;Laerm;50712;49.506;10.400;2023-02-13T00:48:31;30.91;28.95;33.49;;
64393;Laerm;50712;49.506;10.400;2023-02-13T00:49:02;30.92;28.92;32.80;;
64393;Laerm;50712;49.506;10.400;2023-02-13T00:49:32;31.10;29.22;33.15;;
64393;Laerm;50712;49.506;10.400;2023-02-13T00:50:05;30.88;29.06;35.09;;
64393;Laerm;50712;49.506;10.400;2023-02-13T00:50:35;31.29;29.21;33.25;;
64393;Laerm;50712;49.506;10.400;2023-02-13T00:51:07;31.73;29.58;33.96;;
64393;Laerm;50712;49.506;10.400;2023-02-13T00:51:37;31.06;29.25;33.05;;
64393;Laerm;50712;49.506;10.400;2023-02-13T00:52:08;30.98;29.08;33.12;;
64393;Laerm;50712;49.506;10.400;2023-02-13T00:52:38;31.67;29.27;34.01;;
64393;Laerm;50712;49.506;10.400;2023-02-13T00:53:39;31.70;29.49;34.65;;
64393;Laerm;50712;49.506;10.400;2023-02-13T00:54:09;32.94;30.12;35.56;;
64393;Laerm;50712;49.506;10.400;2023-02-13T00:54:40;33.13;30.45;36.06;;
64393;Laerm;50712;49.506;10.400;2023-02-13T00:55:10;32.94;30.56;35.61;;
64393;Laerm;50712;49.506;10.400;2023-02-13T00:55:41;32.31;30.30;36.01;;
64393;Laerm;50712;49.506;10.400;2023-02-13T00:56:12;32.75;30.61;34.65;;
64393;Laerm;50712;49.506;10.400;2023-02-13T00:56:42;33.23;30.68;37.33;;
64393;Laerm;50712;49.506;10.400;2023-02-13T00:57:13;33.42;30.98;36.36;;
64393;Laerm;50712;49.506;10.400;2023-02-13T00:57:45;33.44;31.32;36.01;;
64393;Laerm;50712;49.506;10.400;2023-02-13T00:58:16;33.84;31.50;35.98;;
64393;Laerm;50712;49.506;10.400;2023-02-13T00:58:47;33.56;30.75;37.01;;
64393;Laerm;50712;49.506;10.400;2023-02-13T00:59:18;33.71;30.82;36.12;;
64393;Laerm;50712;49.506;10.400;2023-02-13T00:59:48;33.65;30.59;36.24;;
64393;Laerm;50712;49.506;10.400;2023-02-13T01:00:19;33.34;31.02;36.50;;
64393;Laerm;50712;49.506;10.400;2023-02-13T01:00:50;33.74;31.08;39.23;;
64393;Laerm;50712;49.506;10.400;2023-02-13T01:01:21;33.86;31.60;37.67;;
64393;Laerm;50712;49.506;10.400;2023-02-13T01:01:51;33.68;30.46;36.50;;
64393;Laerm;50712;49.506;10.400;2023-02-13T01:02:22;33.48;30.88;36.93;;
64393;Laerm;50712;49.506;10.400;2023-02-13T01:02:52;33.80;31.04;37.00;;
64393;Laerm;50712;49.506;10.400;2023-02-13T01:03:53;34.38;31.34;38.50;;
64393;Laerm;50712;49.506;10.400;2023-02-13T01:04:24;33.18;30.73;36.00;;
64393;Laerm;50712;49.506;10.400;2023-02-13T01:05:25;33.42;30.98;36.93;;
64393;Laerm;50712;49.506;10.400;2023-02-13T01:05:57;32.54;30.04;35.30;;
64393;Laerm;50712;49.506;10.400;2023-02-13T01:06:29;32.19;30.30;34.46;;
64393;Laerm;50712;49.506;10.400;2023-02-13T01:06:59;32.24;30.20;34.79;;
64393;Laerm;50712;49.506;10.400;2023-02-13T01:07:29;32.21;29.44;35.44;;
64393;Laerm;50712;49.506;10.400;2023-02-13T01:08:00;32.94;30.25;34.95;;
64393;Laerm;50712;49.506;10.400;2023-02-13T01:08:30;33.25;30.71;35.78;;
64393;Laerm;50712;49.506;10.400;2023-02-13T01:09:02;33.32;30.66;35.86;;
64393;Laerm;50712;49.506;10.400;2023-02-13T01:09:32;32.81;30.55;35.41;;
64393;Laerm;50712;49.506;10.400;2023-02-13T01:10:03;32.80;30.46;35.90;;
64393;Laerm;50712;49.506;10.400;2023-02-13T01:10:33;32.87;30.33;37.09;;
64393;Laerm;50712;49.506;10.400;2023-02-13T01:11:04;32.91;30.54;35.37;;
64393;Laerm;50712;49.506;10.400;2023-02-13T01:11:34;33.78;31.22;36.86;;
64393;Laerm;50712;49.506;10.400;2023-02-13T01:12:05;34.35;30.92;42.28;;
64393;Laerm;50712;49.506;10.400;2023-02-13T01:13:06;36.53;31.47;45.74;;
64393;Laerm;50712;49.506;10.400;2023-02-13T01:13:37;33.55;30.93;36.31;;
64393;Laerm;50712;49.506;10.400;2023-02-13T01:14:08;34.12;30.98;42.73;;
64393;Laerm;50712;49.506;10.400;2023-02-13T01:14:38;37.27;31.63;46.45;;
64393;Laerm;50712;49.506;10.400;2023-02-13T01:15:09;40.13;32.59;48.62;;
64393;Laerm;50712;49.506;10.400;2023-02-13T01:15:40;35.61;31.17;42.26;;
64393;Laerm;50712;49.506;10.400;2023-02-13T01:16:10;34.27;30.14;40.34;;
64393;Laerm;50712;49.506;10.400;2023-02-13T01:16:41;32.50;30.14;35.68;;
64393;Laerm;50712;49.506;10.400;2023-02-13T01:17:11;31.87;29.55;35.34;;
64393;Laerm;50712;49.506;10.400;2023-02-13T01:17:42;34.53;29.28;46.25;;
64393;Laerm;50712;49.506;10.400;2023-02-13T01:18:17;32.70;29.69;37.84;;
64393;Laerm;50712;49.506;10.400;2023-02-13T01:18:47;32.73;30.18;39.54;;
64393;Laerm;50712;49.506;10.400;2023-02-13T01:19:18;37.20;29.93;55.62;;
64393;Laerm;50712;49.506;10.400;2023-02-13T01:19:48;31.91;29.37;35.01;;
64393;Laerm;50712;49.506;10.400;2023-02-13T01:20:19;32.03;29.78;35.18;;
64393;Laerm;50712;49.506;10.400;2023-02-13T01:21:01;32.92;30.22;40.00;;
64393;Laerm;50712;49.506;10.400;2023-02-13T01:21:31;33.49;30.14;47.10;;
64393;Laerm;50712;49.506;10.400;2023-02-13T01:22:02;34.46;29.84;49.26;;
64393;Laerm;50712;49.506;10.400;2023-02-13T01:22:32;34.33;30.63;43.69;;
64393;Laerm;50712;49.506;10.400;2023-02-13T01:23:02;34.58;30.03;41.95;;
64393;Laerm;50712;49.506;10.400;2023-02-13T01:24:05;34.44;29.42;48.55;;
64393;Laerm;50712;49.506;10.400;2023-02-13T01:24:36;32.91;30.12;41.52;;
64393;Laerm;50712;49.506;10.400;2023-02-13T01:25:06;34.13;29.93;48.20;;
64393;Laerm;50712;49.506;10.400;2023-02-13T01:25:43;33.38;29.89;39.80;;
64393;Laerm;50712;49.506;10.400;2023-02-13T01:26:19;32.21;30.01;35.20;;
64393;Laerm;50712;49.506;10.400;2023-02-13T01:26:50;32.42;29.91;41.11;;
64393;Laerm;50712;49.506;10.400;2023-02-13T01:27:20;31.79;29.73;33.53;;
64393;Laerm;50712;49.506;10.400;2023-02-13T01:27:50;31.62;29.81;34.39;;
64393;Laerm;50712;49.506;10.400;2023-02-13T01:28:21;31.75;29.76;34.04;;
64393;Laerm;50712;49.506;10.400;2023-02-13T01:28:53;32.47;30.03;35.71;;
64393;Laerm;50712;49.506;10.400;2023-02-13T01:29:23;32.04;29.82;34.70;;
64393;Laerm;50712;49.506;10.400;2023-02-13T01:29:54;31.99;29.62;33.95;;
64393;Laerm;50712;49.506;10.400;2023-02-13T01:30:24;32.28;30.18;34.36;;
64393;Laerm;50712;49.506;10.400;2023-02-13T01:30:56;32.44;30.44;34.70;;
64393;Laerm;50712;49.506;10.400;2023-02-13T01:31:27;32.30;30.08;35.60;;
64393;Laerm;50712;49.506;10.400;2023-02-13T01:31:58;32.31;29.94;37.75;;
64393;Laerm;50712;49.506;10.400;2023-02-13T01:32:32;33.04;30.28;41.28;;
64393;Laerm;50712;49.506;10.400;2023-02-13T01:33:02;33.62;30.56;38.03;;
64393;Laerm;50712;49.506;10.400;2023-02-13T01:33:32;33.52;30.72;41.00;;
64393;Laerm;50712;49.506;10.400;2023-02-13T01:34:05;34.28;30.28;55.19;;
64393;Laerm;50712;49.506;10.400;2023-02-13T01:34:35;33.31;30.83;42.11;;
64393;Laerm;50712;49.506;10.400;2023-02-13T01:35:07;34.23;31.39;46.54;;
64393;Laerm;50712;49.506;10.400;2023-02-13T01:35:38;34.26;31.35;37.21;;
64393;Laerm;50712;49.506;10.400;2023-02-13T01:36:10;33.56;30.97;36.09;;
64393;Laerm;50712;49.506;10.400;2023-02-13T01:37:12;33.15;30.67;35.34;;
64393;Laerm;50712;49.506;10.400;2023-02-13T01:37:43;32.82;30.07;35.40;;
64393;Laerm;50712;49.506;10.400;2023-02-13T01:38:13;32.91;30.28;35.44;;
64393;Laerm;50712;49.506;10.400;2023-02-13T01:38:44;33.33;30.50;36.99;;
64393;Laerm;50712;49.506;10.400;2023-02-13T01:39:14;34.27;31.10;40.76;;
64393;Laerm;50712;49.506;10.400;2023-02-13T01:40:16;35.33;31.60;43.40;;
64393;Laerm;50712;49.506;10.400;2023-02-13T01:40:51;33.45;30.92;36.58;;
64393;Laerm;50712;49.506;10.400;2023-02-13T01:41:22;32.33;30.37;34.54;;
64393;Laerm;50712;49.506;10.400;2023-02-13T01:41:53;32.42;30.22;41.97;;
64393;Laerm;50712;49.506;10.400;2023-02-13T01:42:25;33.28;30.90;37.38;;
64393;Laerm;50712;49.506;10.400;2023-02-13T01:42:57;34.34;30.77;38.58;;
64393;Laerm;50712;49.506;10.400;2023-02-13T01:43:48;34.10;30.89;39.60;;
64393;Laerm;50712;49.506;10.400;2023-02-13T01:44:53;32.92;30.39;38.32;;
64393;Laerm;50712;49.506;10.400;2023-02-13T01:45:27;33.94;30.92;38.07;;
64393;Laerm;50712;49.506;10.400;2023-02-13T01:45:58;33.44;30.98;36.28;;
64393;Laerm;50712;49.506;10.400;2023-02-13T01:46:34;33.79;31.23;36.49;;
64393;Laerm;50712;49.506;10.400;2023-02-13T01:47:08;34.90;31.74;40.58;;
64393;Laerm;50712;49.506;10.400;2023-02-13T01:47:49;33.16;30.77;38.91;;
64393;Laerm;50712;49.506;10.400;2023-02-13T01:48:25;33.14;30.46;35.79;;
64393;Laerm;50712;49.506;10.400;2023-02-13T01:49:02;33.84;30.90;36.95;;
64393;Laerm;50712;49.506;10.400;2023-02-13T01:49:34;34.44;32.14;37.72;;
64393;Laerm;50712;49.506;10.400;2023-02-13T01:50:18;33.41;31.08;36.19;;
64393;Laerm;50712;49.506;10.400;2023-02-13T01:50:56;32.81;30.41;35.80;;
64393;Laerm;50712;49.506;10.400;2023-02-13T01:51:32;34.33;31.54;38.18;;
64393;Laerm;50712;49.506;10.400;2023-02-13T01:52:03;34.69;32.00;37.92;;
64393;Laerm;50712;49.506;10.400;2023-02-13T01:52:35;34.81;31.01;39.00;;
64393;Laerm;50712;49.506;10.400;2023-02-13T01:54:07;34.78;31.62;41.79;;
64393;Laerm;50712;49.506;10.400;2023-02-13T01:54:38;35.49;32.90;39.17;;
64393;Laerm;50712;49.506;10.400;2023-02-13T01:55:09;35.84;32.33;44.17;;
64393;Laerm;50712;49.506;10.400;2023-02-13T01:55:46;35.09;31.97;39.81;;
64393;Laerm;50712;49.506;10.400;2023-02-13T01:56:26;34.08;30.97;36.63;;
64393;Laerm;50712;49.506;10.400;2023-02-13T01:57:02;34.16;31.20;40.15;;
64393;Laerm;50712;49.506;10.400;2023-02-13T01:57:34;34.75;31.05;39.15;;
64393;Laerm;50712;49.506;10.400;2023-02-13T01:58:08;37.66;32.39;43.60;;
64393;Laerm;50712;49.506;10.400;2023-02-13T01:58:43;35.23;32.02;40.67;;
64393;Laerm;50712;49.506;10.400;2023-02-13T01:59:19;34.77;31.50;38.11;;
64393;Laerm;50712;49.506;10.400;2023-02-13T01:59:56;39.59;31.34;61.96;;
64393;Laerm;50712;49.506;10.400;2023-02-13T02:00:31;33.66;30.95;36.09;;
64393;Laerm;50712;49.506;10.400;2023-02-13T02:01:02;33.30;30.70;35.43;;
64393;Laerm;50712;49.506;10.400;2023-02-13T02:01:35;33.05;30.35;36.16;;
64393;Laerm;50712;49.506;10.400;2023-02-13T02:02:06;34.17;30.65;45.56;;
64393;Laerm;50712;49.506;10.400;2023-02-13T02:02:39;33.94;30.57;44.01;;
64393;Laerm;50712;49.506;10.400;2023-02-13T02:03:18;33.86;30.55;47.12;;
64393;Laerm;50712;49.506;10.400;2023-02-13T02:03:59;33.21;30.82;35.78;;
64393;Laerm;50712;49.506;10.400;2023-02-13T02:04:37;33.37;30.68;36.08;;
64393;Laerm;50712;49.506;10.400;2023-02-13T02:05:15;33.32;30.63;39.49;;
64393;Laerm;50712;49.506;10.400;2023-02-13T02:05:48;33.46;30.62;35.76;;
64393;Laerm;50712;49.506;10.400;2023-02-13T02:06:25;33.52;31.24;36.05;;
64393;Laerm;50712;49.506;10.400;2023-02-13T02:07:00;33.33;30.97;37.58;;
64393;Laerm;50712;49.506;10.400;2023-02-13T02:07:36;33.05;30.71;35.92;;
64393;Laerm;50712;49.506;10.400;2023-02-13T02:08:11;33.92;31.37;41.98;;
64393;Laerm;50712;49.506;10.400;2023-02-13T02:08:45;34.28;31.29;37.31;;
64393;Laerm;50712;49.506;10.400;2023-02-13T02:09:26;34.31;31.33;36.86;;
64393;Laerm;50712;49.506;10.400;2023-02-13T02:10:02;33.82;31.29;36.46;;
64393;Laerm;50712;49.506;10.400;2023-02-13T02:10:34;33.69;31.02;39.14;;
64393;Laerm;50712;49.506;10.400;2023-02-13T02:11:15;33.16;30.63;37.41;;
64393;Laerm;50712;49.506;10.400;2023-02-13T02:11:59;32.92;30.70;37.15;;
64393;Laerm;50712;49.506;10.400;2023-02-13T02:13:12;33.68;30.67;42.08;;
64393;Laerm;50712;49.506;10.400;2023-02-13T02:13:44;33.33;30.29;38.51;;
64393;Laerm;50712;49.506;10.400;2023-02-13T02:14:15;33.53;30.97;38.98;;
64393;Laerm;50712;49.506;10.400;2023-02-13T02:14:46;33.02;30.56;38.46;;
64393;Laerm;50712;49.506;10.400;2023-02-13T02:15:17;36.49;30.90;44.36;;
64393;Laerm;50712;49.506;10.400;2023-02-13T02:15:48;40.21;34.18;51.38;;
64393;Laerm;50712;49.506;10.400;2023-02-13T02:16:19;35.96;32.08;41.95;;
64393;Laerm;50712;49.506;10.400;2023-02-13T02:16:51;36.54;31.47;44.26;;
64393;Laerm;50712;49.506;10.400;2023-02-13T02:17:24;35.00;31.17;42.50;;
64393;Laerm;50712;49.506;10.400;2023-02-13T02:17:55;34.52;31.10;42.22;;
64393;Laerm;50712;49.506;10.400;2023-02-13T02:18:26;32.98;30.76;36.51;;
64393;Laerm;50712;49.506;10.400;2023-02-13T02:18:56;33.44;31.18;35.75;;
64393;Laerm;50712;49.506;10.400;2023-02-13T02:21:18;31.91;29.75;35.19;;
64393;Laerm;50712;49.506;10.400;2023-02-13T02:23:00;32.59;29.66;36.85;;
64393;Laerm;50712;49.506;10.400;2023-02-13T02:24:50;31.71;29.53;34.60;;
64393;Laerm;50712;49.506;10.400;2023-02-13T02:25:45;32.21;29.51;36.39;;
64393;Laerm;50712;49.506;10.400;2023-02-13T02:26:48;35.66;30.44;45.78;;
64393;Laerm;50712;49.506;10.400;2023-02-13T02:28:18;33.84;29.96;40.08;;
64393;Laerm;50712;49.506;10.400;2023-02-13T02:29:08;33.73;30.32;44.04;;
64393;Laerm;50712;49.506;10.400;2023-02-13T02:30:30;32.39;30.35;34.82;;
64393;Laerm;50712;49.506;10.400;2023-02-13T02:32:20;32.35;30.18;35.39;;
64393;Laerm;50712;49.506;10.400;2023-02-13T02:33:00;36.74;31.65;42.80;;
64393;Laerm;50712;49.506;10.400;2023-02-13T02:36:28;33.84;31.01;37.15;;
64393;Laerm;50712;49.506;10.400;2023-02-13T02:39:46;32.86;30.33;36.23;;
64393;Laerm;50712;49.506;10.400;2023-02-13T02:40:35;33.17;30.45;36.20;;
64393;Laerm;50712;49.506;10.400;2023-02-13T02:41:24;33.33;31.00;35.79;;
64393;Laerm;50712;49.506;10.400;2023-02-13T02:42:29;33.29;30.71;36.25;;
64393;Laerm;50712;49.506;10.400;2023-02-13T02:44:03;32.75;29.83;35.21;;
64393;Laerm;50712;49.506;10.400;2023-02-13T02:44:44;33.45;31.07;36.16;;
64393;Laerm;50712;49.506;10.400;2023-02-13T02:45:27;35.59;31.53;41.75;;
64393;Laerm;50712;49.506;10.400;2023-02-13T02:47:58;33.14;29.79;35.82;;
64393;Laerm;50712;49.506;10.400;2023-02-13T02:48:55;33.16;30.50;36.78;;
64393;Laerm;50712;49.506;10.400;2023-02-13T02:49:54;33.40;30.38;38.99;;
64393;Laerm;50712;49.506;10.400;2023-02-13T02:50:49;32.96;30.40;35.31;;
64393;Laerm;50712;49.506;10.400;2023-02-13T02:51:24;33.05;30.42;37.91;;
64393;Laerm;50712;49.506;10.400;2023-02-13T02:52:12;32.91;30.60;35.15;;
64393;Laerm;50712;49.506;10.400;2023-02-13T02:54:23;33.13;30.15;38.19;;
64393;Laerm;50712;49.506;10.400;2023-02-13T02:55:26;36.05;30.33;48.18;;
64393;Laerm;50712;49.506;10.400;2023-02-13T02:56:14;32.30;29.11;35.37;;
64393;Laerm;50712;49.506;10.400;2023-02-13T02:56:48;31.42;29.62;33.62;;
64393;Laerm;50712;49.506;10.400;2023-02-13T02:57:23;31.55;29.72;33.42;;
64393;Laerm;50712;49.506;10.400;2023-02-13T02:59:24;33.70;29.73;41.58;;
64393;Laerm;50712;49.506;10.400;2023-02-13T03:00:15;32.25;29.99;34.94;;
64393;Laerm;50712;49.506;10.400;2023-02-13T03:01:10;32.75;30.25;36.69;;
64393;Laerm;50712;49.506;10.400;2023-02-13T03:02:01;32.16;29.81;40.82;;
64393;Laerm;50712;49.506;10.400;2023-02-13T03:02:53;33.40;30.25;37.24;;
64393;Laerm;50712;49.506;10.400;2023-02-13T03:03:43;34.49;30.72;44.95;;
64393;Laerm;50712;49.506;10.400;2023-02-13T03:04:39;31.62;29.47;33.94;;
64393;Laerm;50712;49.506;10.400;2023-02-13T03:05:33;33.38;30.28;37.31;;
64393;Laerm;50712;49.506;10.400;2023-02-13T03:07:38;32.23;30.34;34.14;;
64393;Laerm;50712;49.506;10.400;2023-02-13T03:08:09;32.79;30.10;41.06;;
64393;Laerm;50712;49.506;10.400;2023-02-13T03:08:42;32.88;30.50;35.53;;
64393;Laerm;50712;49.506;10.400;2023-02-13T03:09:36;35.62;31.13;44.12;;
64393;Laerm;50712;49.506;10.400;2023-02-13T03:10:30;33.10;30.29;36.64;;
64393;Laerm;50712;49.506;10.400;2023-02-13T03:11:20;33.53;30.40;44.26;;
64393;Laerm;50712;49.506;10.400;2023-02-13T03:12:10;34.82;30.65;44.60;;
64393;Laerm;50712;49.506;10.400;2023-02-13T03:13:12;34.70;31.43;43.27;;
64393;Laerm;50712;49.506;10.400;2023-02-13T03:13:53;32.74;30.39;35.77;;
64393;Laerm;50712;49.506;10.400;2023-02-13T03:14:26;32.43;29.95;34.65;;
64393;Laerm;50712;49.506;10.400;2023-02-13T03:15:27;32.29;29.67;34.55;;
64393;Laerm;50712;49.506;10.400;2023-02-13T03:15:59;34.01;31.02;39.25;;
64393;Laerm;50712;49.506;10.400;2023-02-13T03:16:49;33.40;30.30;43.93;;
64393;Laerm;50712;49.506;10.400;2023-02-13T03:18:41;32.84;30.11;35.94;;
64393;Laerm;50712;49.506;10.400;2023-02-13T03:19:59;32.21;29.49;35.73;;
64393;Laerm;50712;49.506;10.400;2023-02-13T03:20:55;33.34;30.69;38.33;;
64393;Laerm;50712;49.506;10.400;2023-02-13T03:22:24;34.65;30.98;49.05;;
64393;Laerm;50712;49.506;10.400;2023-02-13T03:23:14;34.06;31.42;38.55;;
64393;Laerm;50712;49.506;10.400;2023-02-13T03:23:56;32.83;30.29;37.08;;
64393;Laerm;50712;49.506;10.400;2023-02-13T03:25:15;32.72;29.72;39.74;;
64393;Laerm;50712;49.506;10.400;2023-02-13T03:26:49;34.50;32.11;37.43;;
64393;Laerm;50712;49.506;10.400;2023-02-13T03:29:07;34.16;31.09;38.77;;
64393;Laerm;50712;49.506;10.400;2023-02-13T03:31:26;34.96;31.89;38.07;;
64393;Laerm;50712;49.506;10.400;2023-02-13T03:32:23;35.70;32.73;42.74;;
64393;Laerm;50712;49.506;10.400;2023-02-13T03:33:51;33.57;30.78;37.44;;
64393;Laerm;50712;49.506;10.400;2023-02-13T03:34:24;34.12;31.57;38.32;;
64393;Laerm;50712;49.506;10.400;2023-02-13T03:36:48;33.66;30.94;36.95;;
64393;Laerm;50712;49.506;10.400;2023-02-13T03:37:44;33.87;30.70;42.34;;
64393;Laerm;50712;49.506;10.400;2023-02-13T03:38:31;34.44;31.42;39.24;;
64393;Laerm;50712;49.506;10.400;2023-02-13T03:39:12;38.64;33.14;42.75;;
64393;Laerm;50712;49.506;10.400;2023-02-13T03:40:04;36.34;31.70;41.89;;
64393;Laerm;50712;49.506;10.400;2023-02-13T03:40:44;35.49;31.25;41.45;;
64393;Laerm;50712;49.506;10.400;2023-02-13T03:41:59;39.00;33.77;43.66;;
64393;Laerm;50712;49.506;10.400;2023-02-13T03:42:41;35.62;31.70;43.65;;
64393;Laerm;50712;49.506;10.400;2023-02-13T03:43:16;33.99;31.81;37.43;;
64393;Laerm;50712;49.506;10.400;2023-02-13T03:45:24;39.19;35.24;43.76;;
64393;Laerm;50712;49.506;10.400;2023-02-13T03:46:17;35.70;32.22;42.39;;
64393;Laerm;50712;49.506;10.400;2023-02-13T03:46:50;34.70;31.46;41.84;;
64393;Laerm;50712;49.506;10.400;2023-02-13T03:47:22;35.38;31.40;38.58;;
64393;Laerm;50712;49.506;10.400;2023-02-13T03:47:55;37.07;33.73;40.96;;
64393;Laerm;50712;49.506;10.400;2023-02-13T03:48:31;37.76;33.85;41.96;;
64393;Laerm;50712;49.506;10.400;2023-02-13T03:49:28;37.25;33.11;42.40;;
64393;Laerm;50712;49.506;10.400;2023-02-13T03:50:19;38.65;32.88;49.47;;
64393;Laerm;50712;49.506;10.400;2023-02-13T03:50:49;35.67;32.38;40.09;;
64393;Laerm;50712;49.506;10.400;2023-02-13T03:51:27;35.75;32.41;39.48;;